sensor_id;sensor_type;location;lat;lon;timestamp;pressure;altitude;pressure_sealevel;temperature;humidity
9415;BME280;4746;35.664;139.738;2023-04-25T00:01:34;101258.66;;;19.44;32.97
9415;BME280;4746;35.664;139.738;2023-04-25T00:04:03;101265.56;;;19.49;33.00
9415;BME280;4746;35.664;139.738;2023-04-25T00:06:34;101269.03;;;19.48;32.99
9415;BME280;4746;35.664;139.738;2023-04-25T00:09:06;101267.22;;;19.53;32.64
9415;BME280;4746;35.664;139.738;2023-04-25T00:11:38;101273.28;;;19.52;32.68
9415;BME280;4746;35.664;139.738;2023-04-25T00:14:06;101268.06;;;19.55;32.71
9415;BME280;4746;35.664;139.738;2023-04-25T00:16:33;101271.53;;;19.55;32.68
9415;BME280;4746;35.664;139.738;2023-04-25T00:19:02;101269.75;;;19.59;32.73
9415;BME280;4746;35.664;139.738;2023-04-25T00:21:31;101256.63;;;19.66;32.60
9415;BME280;4746;35.664;139.738;2023-04-25T00:24:01;101260.00;;;19.77;32.46
9415;BME280;4746;35.664;139.738;2023-04-25T00:26:32;101256.38;;;19.84;32.69
9415;BME280;4746;35.664;139.738;2023-04-25T00:29:00;101269.38;;;19.87;32.18
9415;BME280;4746;35.664;139.738;2023-04-25T00:31:28;101257.22;;;19.89;32.18
9415;BME280;4746;35.664;139.738;2023-04-25T00:33:55;101271.88;;;19.96;31.94
9415;BME280;4746;35.664;139.738;2023-04-25T00:36:27;101268.34;;;19.99;31.73
9415;BME280;4746;35.664;139.738;2023-04-25T00:38:55;101269.28;;;19.95;32.17
9415;BME280;4746;35.664;139.738;2023-04-25T00:41:23;101270.88;;;20.05;32.15
9415;BME280;4746;35.664;139.738;2023-04-25T00:43:54;101262.00;;;20.18;32.23
9415;BME280;4746;35.664;139.738;2023-04-25T00:46:23;101258.41;;;20.27;31.74
9415;BME280;4746;35.664;139.738;2023-04-25T00:48:50;101256.50;;;20.38;31.97
9415;BME280;4746;35.664;139.738;2023-04-25T00:51:21;101266.63;;;20.53;31.56
9415;BME280;4746;35.664;139.738;2023-04-25T00:53:50;101257.75;;;20.66;30.95
9415;BME280;4746;35.664;139.738;2023-04-25T00:56:18;101252.38;;;20.75;30.89
9415;BME280;4746;35.664;139.738;2023-04-25T00:58:47;101243.34;;;20.94;30.68
9415;BME280;4746;35.664;139.738;2023-04-25T01:01:15;101248.22;;;21.12;30.42
9415;BME280;4746;35.664;139.738;2023-04-25T01:03:45;101244.41;;;21.28;30.58
9415;BME280;4746;35.664;139.738;2023-04-25T01:06:13;101242.53;;;21.36;30.26
9415;BME280;4746;35.664;139.738;2023-04-25T01:08:41;101244.88;;;21.48;30.00
9415;BME280;4746;35.664;139.738;2023-04-25T01:11:09;101232.41;;;21.63;29.87
9415;BME280;4746;35.664;139.738;2023-04-25T01:13:36;101220.94;;;21.71;29.77
9415;BME280;4746;35.664;139.738;2023-04-25T01:16:04;101226.81;;;21.81;29.83
9415;BME280;4746;35.664;139.738;2023-04-25T01:18:32;101223.13;;;21.89;29.60
9415;BME280;4746;35.664;139.738;2023-04-25T01:21:12;101227.09;;;22.05;29.57
9415;BME280;4746;35.664;139.738;2023-04-25T01:23:41;101221.72;;;22.11;29.67
9415;BME280;4746;35.664;139.738;2023-04-25T01:26:12;101221.44;;;22.23;30.07
9415;BME280;4746;35.664;139.738;2023-04-25T01:28:40;101223.06;;;22.27;29.64
9415;BME280;4746;35.664;139.738;2023-04-25T01:31:08;101215.94;;;22.35;29.76
9415;BME280;4746;35.664;139.738;2023-04-25T01:33:36;101224.38;;;22.46;29.62
9415;BME280;4746;35.664;139.738;2023-04-25T01:36:05;101213.72;;;22.53;29.24
9415;BME280;4746;35.664;139.738;2023-04-25T01:38:33;101208.31;;;22.61;29.43
9415;BME280;4746;35.664;139.738;2023-04-25T01:41:01;101192.31;;;22.73;29.65
9415;BME280;4746;35.664;139.738;2023-04-25T01:43:28;101204.22;;;22.83;29.59
9415;BME280;4746;35.664;139.738;2023-04-25T01:45:57;101193.72;;;22.84;29.35
9415;BME280;4746;35.664;139.738;2023-04-25T01:48:24;101199.00;;;22.83;29.51
9415;BME280;4746;35.664;139.738;2023-04-25T01:50:52;101178.56;;;22.97;29.10
9415;BME280;4746;35.664;139.738;2023-04-25T01:53:19;101185.06;;;23.14;29.13
9415;BME280;4746;35.664;139.738;2023-04-25T01:55:47;101168.84;;;23.32;29.14
9415;BME280;4746;35.664;139.738;2023-04-25T01:58:14;101171.81;;;23.49;28.77
9415;BME280;4746;35.664;139.738;2023-04-25T02:00:42;101170.97;;;23.77;28.36
9415;BME280;4746;35.664;139.738;2023-04-25T02:03:09;101163.41;;;24.20;28.20
9415;BME280;4746;35.664;139.738;2023-04-25T02:05:38;101159.09;;;24.45;28.31
9415;BME280;4746;35.664;139.738;2023-04-25T02:08:08;101138.63;;;24.55;28.12
9415;BME280;4746;35.664;139.738;2023-04-25T02:10:36;101127.34;;;24.53;28.00
9415;BME280;4746;35.664;139.738;2023-04-25T02:13:04;101135.22;;;24.53;28.27
9415;BME280;4746;35.664;139.738;2023-04-25T02:15:32;101124.63;;;24.79;27.43
9415;BME280;4746;35.664;139.738;2023-04-25T02:18:00;101122.25;;;24.96;27.89
9415;BME280;4746;35.664;139.738;2023-04-25T02:20:29;101116.47;;;25.11;27.43
9415;BME280;4746;35.664;139.738;2023-04-25T02:22:57;101110.53;;;25.29;27.24
9415;BME280;4746;35.664;139.738;2023-04-25T02:25:25;101103.47;;;25.52;27.24
9415;BME280;4746;35.664;139.738;2023-04-25T02:27:52;101107.69;;;25.78;27.19
9415;BME280;4746;35.664;139.738;2023-04-25T02:30:20;101110.91;;;26.05;27.14
9415;BME280;4746;35.664;139.738;2023-04-25T02:32:50;101105.56;;;26.48;26.66
9415;BME280;4746;35.664;139.738;2023-04-25T02:35:18;101101.47;;;26.61;26.80
9415;BME280;4746;35.664;139.738;2023-04-25T02:37:45;101095.91;;;26.87;26.57
9415;BME280;4746;35.664;139.738;2023-04-25T02:40:13;101080.09;;;27.07;26.21
9415;BME280;4746;35.664;139.738;2023-04-25T02:42:40;101089.97;;;27.20;26.12
9415;BME280;4746;35.664;139.738;2023-04-25T02:45:08;101075.94;;;27.38;26.14
9415;BME280;4746;35.664;139.738;2023-04-25T02:47:36;101078.94;;;27.49;26.11
9415;BME280;4746;35.664;139.738;2023-04-25T02:50:04;101075.66;;;27.62;25.88
9415;BME280;4746;35.664;139.738;2023-04-25T02:52:32;101076.34;;;27.66;26.04
9415;BME280;4746;35.664;139.738;2023-04-25T02:54:59;101066.53;;;27.69;26.11
9415;BME280;4746;35.664;139.738;2023-04-25T02:57:27;101057.53;;;27.73;26.25
9415;BME280;4746;35.664;139.738;2023-04-25T02:59:54;101073.63;;;27.67;26.20
9415;BME280;4746;35.664;139.738;2023-04-25T03:02:22;101071.50;;;27.57;26.50
9415;BME280;4746;35.664;139.738;2023-04-25T03:04:49;101065.91;;;27.46;26.13
9415;BME280;4746;35.664;139.738;2023-04-25T03:07:17;101064.94;;;27.30;26.47
9415;BME280;4746;35.664;139.738;2023-04-25T03:09:44;101047.44;;;27.11;26.74
9415;BME280;4746;35.664;139.738;2023-04-25T03:12:12;101043.94;;;26.92;26.94
9415;BME280;4746;35.664;139.738;2023-04-25T03:14:39;101049.53;;;26.66;27.35
9415;BME280;4746;35.664;139.738;2023-04-25T03:17:07;101042.72;;;26.42;27.46
9415;BME280;4746;35.664;139.738;2023-04-25T03:19:34;101044.09;;;26.31;27.95
9415;BME280;4746;35.664;139.738;2023-04-25T03:22:02;101034.03;;;26.00;28.11
9415;BME280;4746;35.664;139.738;2023-04-25T03:24:29;101039.69;;;25.70;28.71
9415;BME280;4746;35.664;139.738;2023-04-25T03:26:57;101039.13;;;25.42;29.18
9415;BME280;4746;35.664;139.738;2023-04-25T03:29:24;101039.25;;;25.18;29.10
9415;BME280;4746;35.664;139.738;2023-04-25T03:31:53;101038.22;;;24.99;29.75
9415;BME280;4746;35.664;139.738;2023-04-25T03:34:20;101037.50;;;24.73;30.13
9415;BME280;4746;35.664;139.738;2023-04-25T03:36:48;101043.69;;;24.48;30.46
9415;BME280;4746;35.664;139.738;2023-04-25T03:39:16;101041.88;;;24.25;30.79
9415;BME280;4746;35.664;139.738;2023-04-25T03:41:43;101031.28;;;24.04;31.00
9415;BME280;4746;35.664;139.738;2023-04-25T03:44:11;101029.44;;;23.81;31.67
9415;BME280;4746;35.664;139.738;2023-04-25T03:46:38;101038.78;;;23.63;31.93
9415;BME280;4746;35.664;139.738;2023-04-25T03:49:06;101035.19;;;23.39;32.38
9415;BME280;4746;35.664;139.738;2023-04-25T03:51:33;101034.72;;;23.27;32.51
9415;BME280;4746;35.664;139.738;2023-04-25T03:54:01;101020.06;;;23.21;32.69
9415;BME280;4746;35.664;139.738;2023-04-25T03:56:29;101023.59;;;23.20;32.74
9415;BME280;4746;35.664;139.738;2023-04-25T03:58:57;101023.00;;;23.12;32.81
9415;BME280;4746;35.664;139.738;2023-04-25T04:01:24;101017.06;;;23.08;33.09
9415;BME280;4746;35.664;139.738;2023-04-25T04:03:51;101015.56;;;22.98;33.49
9415;BME280;4746;35.664;139.738;2023-04-25T04:06:19;101008.00;;;22.89;33.51
9415;BME280;4746;35.664;139.738;2023-04-25T04:08:47;101010.94;;;22.78;33.97
9415;BME280;4746;35.664;139.738;2023-04-25T04:11:15;101006.00;;;22.69;33.94
9415;BME280;4746;35.664;139.738;2023-04-25T04:13:42;101001.91;;;22.61;34.29
9415;BME280;4746;35.664;139.738;2023-04-25T04:16:10;101002.97;;;22.54;34.59
9415;BME280;4746;35.664;139.738;2023-04-25T04:18:38;100999.72;;;22.46;34.82
9415;BME280;4746;35.664;139.738;2023-04-25T04:21:05;100991.47;;;22.31;34.90
9415;BME280;4746;35.664;139.738;2023-04-25T04:23:33;100995.88;;;22.29;35.35
9415;BME280;4746;35.664;139.738;2023-04-25T04:26:00;100996.69;;;22.31;35.36
9415;BME280;4746;35.664;139.738;2023-04-25T04:28:28;100991.50;;;22.29;35.55
9415;BME280;4746;35.664;139.738;2023-04-25T04:30:55;100992.41;;;22.28;35.60
9415;BME280;4746;35.664;139.738;2023-04-25T04:33:23;100993.31;;;22.26;35.55
9415;BME280;4746;35.664;139.738;2023-04-25T04:35:51;100991.69;;;22.22;35.84
9415;BME280;4746;35.664;139.738;2023-04-25T04:38:20;101004.22;;;22.09;36.16
9415;BME280;4746;35.664;139.738;2023-04-25T04:40:48;100998.25;;;22.06;35.87
9415;BME280;4746;35.664;139.738;2023-04-25T04:43:17;100995.66;;;22.04;35.90
9415;BME280;4746;35.664;139.738;2023-04-25T04:45:45;101004.38;;;22.03;35.71
9415;BME280;4746;35.664;139.738;2023-04-25T04:48:13;100999.16;;;22.03;35.86
9415;BME280;4746;35.664;139.738;2023-04-25T04:50:42;100998.25;;;22.04;35.68
9415;BME280;4746;35.664;139.738;2023-04-25T04:53:11;100997.53;;;21.99;35.82
9415;BME280;4746;35.664;139.738;2023-04-25T04:55:39;100995.75;;;22.01;35.60
9415;BME280;4746;35.664;139.738;2023-04-25T04:58:08;100986.94;;;22.05;35.59
9415;BME280;4746;35.664;139.738;2023-04-25T05:00:36;100978.03;;;22.12;35.50
9415;BME280;4746;35.664;139.738;2023-04-25T05:03:04;100992.63;;;22.19;35.73
9415;BME280;4746;35.664;139.738;2023-04-25T05:05:32;100983.03;;;22.20;35.82
9415;BME280;4746;35.664;139.738;2023-04-25T05:07:59;100981.31;;;22.20;35.62
9415;BME280;4746;35.664;139.738;2023-04-25T05:10:27;100978.59;;;22.23;35.73
9415;BME280;4746;35.664;139.738;2023-04-25T05:12:54;100982.84;;;22.29;35.87
9415;BME280;4746;35.664;139.738;2023-04-25T05:15:22;100976.59;;;22.33;35.95
9415;BME280;4746;35.664;139.738;2023-04-25T05:17:49;100977.38;;;22.36;36.15
9415;BME280;4746;35.664;139.738;2023-04-25T05:20:17;100977.28;;;22.39;36.60
9415;BME280;4746;35.664;139.738;2023-04-25T05:22:45;100976.34;;;22.41;36.28
9415;BME280;4746;35.664;139.738;2023-04-25T05:25:13;100976.38;;;22.40;36.52
9415;BME280;4746;35.664;139.738;2023-04-25T05:27:40;100965.22;;;22.35;37.19
9415;BME280;4746;35.664;139.738;2023-04-25T05:30:08;100967.88;;;22.34;37.19
9415;BME280;4746;35.664;139.738;2023-04-25T05:32:36;100963.69;;;22.28;37.79
9415;BME280;4746;35.664;139.738;2023-04-25T05:35:04;100964.75;;;22.20;37.83
9415;BME280;4746;35.664;139.738;2023-04-25T05:37:33;100961.75;;;22.03;38.38
9415;BME280;4746;35.664;139.738;2023-04-25T05:40:01;100972.31;;;21.98;38.58
9415;BME280;4746;35.664;139.738;2023-04-25T05:42:33;100968.94;;;21.95;38.73
9415;BME280;4746;35.664;139.738;2023-04-25T05:45:01;100975.19;;;21.89;38.75
9415;BME280;4746;35.664;139.738;2023-04-25T05:47:29;100971.75;;;21.87;39.01
9415;BME280;4746;35.664;139.738;2023-04-25T05:49:56;100960.53;;;21.85;39.04
9415;BME280;4746;35.664;139.738;2023-04-25T05:52:24;100967.56;;;21.82;38.99
9415;BME280;4746;35.664;139.738;2023-04-25T05:54:51;100952.75;;;21.82;38.82
9415;BME280;4746;35.664;139.738;2023-04-25T05:57:26;100952.59;;;21.88;38.99
9415;BME280;4746;35.664;139.738;2023-04-25T05:59:54;100958.09;;;21.78;39.21
9415;BME280;4746;35.664;139.738;2023-04-25T06:02:22;100959.09;;;21.74;39.54
9415;BME280;4746;35.664;139.738;2023-04-25T06:04:52;100959.94;;;21.74;39.22
9415;BME280;4746;35.664;139.738;2023-04-25T06:07:20;100963.69;;;21.65;39.45
9415;BME280;4746;35.664;139.738;2023-04-25T06:09:48;100947.41;;;21.55;39.62
9415;BME280;4746;35.664;139.738;2023-04-25T06:12:16;100948.41;;;21.48;39.71
9415;BME280;4746;35.664;139.738;2023-04-25T06:14:43;100951.97;;;21.46;39.86
9415;BME280;4746;35.664;139.738;2023-04-25T06:17:10;100959.88;;;21.43;40.07
9415;BME280;4746;35.664;139.738;2023-04-25T06:19:38;100960.81;;;21.39;40.14
9415;BME280;4746;35.664;139.738;2023-04-25T06:22:06;100969.56;;;21.38;40.10
9415;BME280;4746;35.664;139.738;2023-04-25T06:24:34;100959.16;;;21.36;40.29
9415;BME280;4746;35.664;139.738;2023-04-25T06:27:02;100954.91;;;21.32;40.34
9415;BME280;4746;35.664;139.738;2023-04-25T06:29:29;100952.41;;;21.28;40.52
9415;BME280;4746;35.664;139.738;2023-04-25T06:31:57;100960.38;;;21.23;40.76
9415;BME280;4746;35.664;139.738;2023-04-25T06:34:24;100947.50;;;21.17;40.76
9415;BME280;4746;35.664;139.738;2023-04-25T06:36:52;100953.59;;;21.16;41.20
9415;BME280;4746;35.664;139.738;2023-04-25T06:39:19;100944.94;;;21.14;41.07
9415;BME280;4746;35.664;139.738;2023-04-25T06:41:46;100949.31;;;21.14;41.02
9415;BME280;4746;35.664;139.738;2023-04-25T06:44:14;100937.38;;;21.04;41.35
9415;BME280;4746;35.664;139.738;2023-04-25T06:46:42;100955.78;;;20.96;41.14
9415;BME280;4746;35.664;139.738;2023-04-25T06:49:09;100959.50;;;20.87;41.37
9415;BME280;4746;35.664;139.738;2023-04-25T06:51:37;100939.69;;;20.80;41.64
9415;BME280;4746;35.664;139.738;2023-04-25T06:54:04;100944.16;;;20.73;41.39
9415;BME280;4746;35.664;139.738;2023-04-25T06:56:32;100948.69;;;20.65;41.56
9415;BME280;4746;35.664;139.738;2023-04-25T06:59:00;100951.41;;;20.59;41.56
9415;BME280;4746;35.664;139.738;2023-04-25T07:01:27;100938.53;;;20.53;41.64
9415;BME280;4746;35.664;139.738;2023-04-25T07:03:55;100951.63;;;20.49;41.92
9415;BME280;4746;35.664;139.738;2023-04-25T07:06:22;100946.50;;;20.46;41.70
9415;BME280;4746;35.664;139.738;2023-04-25T07:08:50;100941.97;;;20.55;41.62
9415;BME280;4746;35.664;139.738;2023-04-25T07:11:17;100931.81;;;20.43;41.74
9415;BME280;4746;35.664;139.738;2023-04-25T07:13:45;100925.59;;;20.49;41.59
9415;BME280;4746;35.664;139.738;2023-04-25T07:16:12;100927.03;;;20.62;41.63
9415;BME280;4746;35.664;139.738;2023-04-25T07:18:39;100921.88;;;20.60;41.36
9415;BME280;4746;35.664;139.738;2023-04-25T07:21:07;100915.88;;;20.57;41.42
9415;BME280;4746;35.664;139.738;2023-04-25T07:23:34;100912.44;;;20.56;41.39
9415;BME280;4746;35.664;139.738;2023-04-25T07:26:02;100918.31;;;20.64;41.44
9415;BME280;4746;35.664;139.738;2023-04-25T07:28:30;100923.50;;;20.64;41.40
9415;BME280;4746;35.664;139.738;2023-04-25T07:30:57;100931.28;;;20.67;41.49
9415;BME280;4746;35.664;139.738;2023-04-25T07:33:26;100926.13;;;20.64;41.34
9415;BME280;4746;35.664;139.738;2023-04-25T07:35:54;100933.81;;;20.70;41.50
9415;BME280;4746;35.664;139.738;2023-04-25T07:38:23;100925.09;;;20.71;41.45
9415;BME280;4746;35.664;139.738;2023-04-25T07:40:50;100924.16;;;20.77;41.31
9415;BME280;4746;35.664;139.738;2023-04-25T07:43:18;100926.72;;;20.78;41.54
9415;BME280;4746;35.664;139.738;2023-04-25T07:45:46;100923.22;;;20.79;41.60
9415;BME280;4746;35.664;139.738;2023-04-25T07:48:22;100919.59;;;20.85;41.64
9415;BME280;4746;35.664;139.738;2023-04-25T07:50:50;100919.72;;;20.80;41.72
9415;BME280;4746;35.664;139.738;2023-04-25T07:53:17;100925.75;;;20.82;41.82
9415;BME280;4746;35.664;139.738;2023-04-25T07:55:45;100929.22;;;20.81;41.71
9415;BME280;4746;35.664;139.738;2023-04-25T07:58:13;100926.63;;;20.81;41.80
9415;BME280;4746;35.664;139.738;2023-04-25T08:00:42;100925.75;;;20.82;41.78
9415;BME280;4746;35.664;139.738;2023-04-25T08:03:10;100917.00;;;20.85;41.86
9415;BME280;4746;35.664;139.738;2023-04-25T08:05:38;100920.53;;;20.82;42.21
9415;BME280;4746;35.664;139.738;2023-04-25T08:08:05;100910.09;;;20.82;41.98
9415;BME280;4746;35.664;139.738;2023-04-25T08:10:34;100921.41;;;20.83;41.97
9415;BME280;4746;35.664;139.738;2023-04-25T08:13:01;100905.81;;;20.80;41.83
9415;BME280;4746;35.664;139.738;2023-04-25T08:15:30;100915.41;;;20.79;41.69
9415;BME280;4746;35.664;139.738;2023-04-25T08:17:58;100914.53;;;20.79;41.50
9415;BME280;4746;35.664;139.738;2023-04-25T08:20:26;100910.25;;;20.76;41.74
9415;BME280;4746;35.664;139.738;2023-04-25T08:22:53;100905.03;;;20.76;41.82
9415;BME280;4746;35.664;139.738;2023-04-25T08:25:21;100903.38;;;20.72;41.86
9415;BME280;4746;35.664;139.738;2023-04-25T08:27:48;100901.66;;;20.71;42.48
9415;BME280;4746;35.664;139.738;2023-04-25T08:30:16;100905.09;;;20.72;42.31
9415;BME280;4746;35.664;139.738;2023-04-25T08:32:44;100912.03;;;20.73;42.43
9415;BME280;4746;35.664;139.738;2023-04-25T08:35:11;100908.59;;;20.72;42.63
9415;BME280;4746;35.664;139.738;2023-04-25T08:37:39;100910.31;;;20.73;42.93
9415;BME280;4746;35.664;139.738;2023-04-25T08:40:12;100912.06;;;20.74;42.80
9415;BME280;4746;35.664;139.738;2023-04-25T08:42:42;100906.88;;;20.71;42.27
9415;BME280;4746;35.664;139.738;2023-04-25T08:45:10;100906.94;;;20.68;42.78
9415;BME280;4746;35.664;139.738;2023-04-25T08:47:39;100903.56;;;20.65;42.68
9415;BME280;4746;35.664;139.738;2023-04-25T08:50:08;100907.09;;;20.62;42.91
9415;BME280;4746;35.664;139.738;2023-04-25T08:52:45;100894.88;;;20.64;42.83
9415;BME280;4746;35.664;139.738;2023-04-25T08:55:13;100898.44;;;20.60;42.67
9415;BME280;4746;35.664;139.738;2023-04-25T08:57:43;100900.13;;;20.63;42.93
9415;BME280;4746;35.664;139.738;2023-04-25T09:00:12;100905.28;;;20.64;42.83
9415;BME280;4746;35.664;139.738;2023-04-25T09:02:42;100907.03;;;20.64;42.83
9415;BME280;4746;35.664;139.738;2023-04-25T09:05:13;100907.09;;;20.62;42.84
9415;BME280;4746;35.664;139.738;2023-04-25T09:07:41;100908.88;;;20.60;42.85
9415;BME280;4746;35.664;139.738;2023-04-25T09:10:09;100907.09;;;20.61;42.82
9415;BME280;4746;35.664;139.738;2023-04-25T09:12:37;100911.44;;;20.62;43.15
9415;BME280;4746;35.664;139.738;2023-04-25T09:15:12;100903.47;;;20.68;42.73
9415;BME280;4746;35.664;139.738;2023-04-25T09:17:42;100900.03;;;20.66;42.59
9415;BME280;4746;35.664;139.738;2023-04-25T09:20:14;100893.94;;;20.67;42.36
9415;BME280;4746;35.664;139.738;2023-04-25T09:22:41;100908.78;;;20.63;42.37
9415;BME280;4746;35.664;139.738;2023-04-25T09:25:13;100907.84;;;20.66;42.12
9415;BME280;4746;35.664;139.738;2023-04-25T09:27:54;100912.16;;;20.68;41.79
9415;BME280;4746;35.664;139.738;2023-04-25T09:30:34;100906.94;;;20.68;41.59
9415;BME280;4746;35.664;139.738;2023-04-25T09:33:12;100908.63;;;20.69;41.51
9415;BME280;4746;35.664;139.738;2023-04-25T09:35:43;100913.94;;;20.66;41.37
9415;BME280;4746;35.664;139.738;2023-04-25T09:38:14;100905.25;;;20.66;41.43
9415;BME280;4746;35.664;139.738;2023-04-25T09:40:47;100925.25;;;20.65;41.24
9415;BME280;4746;35.664;139.738;2023-04-25T09:43:23;100919.19;;;20.63;41.02
9415;BME280;4746;35.664;139.738;2023-04-25T09:45:55;100924.44;;;20.62;41.33
9415;BME280;4746;35.664;139.738;2023-04-25T09:48:28;100912.31;;;20.61;41.18
9415;BME280;4746;35.664;139.738;2023-04-25T09:51:11;100905.28;;;20.64;41.17
9415;BME280;4746;35.664;139.738;2023-04-25T09:53:45;100905.38;;;20.61;41.20
9415;BME280;4746;35.664;139.738;2023-04-25T09:56:16;100901.03;;;20.60;41.25
9415;BME280;4746;35.664;139.738;2023-04-25T09:58:44;100903.66;;;20.60;41.28
9415;BME280;4746;35.664;139.738;2023-04-25T10:01:14;100909.69;;;20.62;41.25
9415;BME280;4746;35.664;139.738;2023-04-25T10:03:48;100904.41;;;20.65;41.25
9415;BME280;4746;35.664;139.738;2023-04-25T10:06:22;100917.44;;;20.65;41.12
9415;BME280;4746;35.664;139.738;2023-04-25T10:08:56;100920.03;;;20.65;41.23
9415;BME280;4746;35.664;139.738;2023-04-25T10:11:26;100927.00;;;20.65;41.47
9415;BME280;4746;35.664;139.738;2023-04-25T10:13:56;100920.97;;;20.63;41.33
9415;BME280;4746;35.664;139.738;2023-04-25T10:16:28;100915.69;;;20.64;41.45
9415;BME280;4746;35.664;139.738;2023-04-25T10:18:59;100925.94;;;20.73;41.46
9415;BME280;4746;35.664;139.738;2023-04-25T10:21:32;100931.19;;;20.70;41.69
9415;BME280;4746;35.664;139.738;2023-04-25T10:24:02;100924.31;;;20.68;41.50
9415;BME280;4746;35.664;139.738;2023-04-25T10:26:30;100930.25;;;20.73;41.47
9415;BME280;4746;35.664;139.738;2023-04-25T10:29:01;100936.34;;;20.75;41.55
9415;BME280;4746;35.664;139.738;2023-04-25T10:31:31;100936.31;;;20.76;41.30
9415;BME280;4746;35.664;139.738;2023-04-25T10:34:00;100931.97;;;20.75;41.12
9415;BME280;4746;35.664;139.738;2023-04-25T10:36:32;100935.50;;;20.74;40.91
9415;BME280;4746;35.664;139.738;2023-04-25T10:39:05;100938.09;;;20.74;40.90
9415;BME280;4746;35.664;139.738;2023-04-25T10:41:56;100925.94;;;20.72;41.06
9415;BME280;4746;35.664;139.738;2023-04-25T10:44:28;100926.91;;;20.68;40.78
9415;BME280;4746;35.664;139.738;2023-04-25T10:47:01;100932.34;;;20.59;41.07
9415;BME280;4746;35.664;139.738;2023-04-25T10:49:41;100927.19;;;20.56;41.26
9415;BME280;4746;35.664;139.738;2023-04-25T10:54:54;100918.56;;;20.52;41.41
9415;BME280;4746;35.664;139.738;2023-04-25T10:57:47;100935.88;;;20.56;41.41
9415;BME280;4746;35.664;139.738;2023-04-25T11:00:23;100929.88;;;20.51;41.25
9415;BME280;4746;35.664;139.738;2023-04-25T11:02:58;100930.78;;;20.50;41.00
9415;BME280;4746;35.664;139.738;2023-04-25T11:05:36;100911.66;;;20.51;41.16
9415;BME280;4746;35.664;139.738;2023-04-25T11:08:11;100916.84;;;20.53;40.93
9415;BME280;4746;35.664;139.738;2023-04-25T11:10:41;100918.66;;;20.49;40.83
9415;BME280;4746;35.664;139.738;2023-04-25T11:13:09;100906.34;;;20.56;41.00
9415;BME280;4746;35.664;139.738;2023-04-25T11:15:37;100900.16;;;20.61;40.78
9415;BME280;4746;35.664;139.738;2023-04-25T11:18:05;100894.97;;;20.61;40.66
9415;BME280;4746;35.664;139.738;2023-04-25T11:20:33;100882.72;;;20.63;40.70
9415;BME280;4746;35.664;139.738;2023-04-25T11:23:00;100888.81;;;20.64;40.67
9415;BME280;4746;35.664;139.738;2023-04-25T11:25:29;100886.16;;;20.65;40.63
9415;BME280;4746;35.664;139.738;2023-04-25T11:27:58;100886.22;;;20.64;40.78
9415;BME280;4746;35.664;139.738;2023-04-25T11:30:28;100883.66;;;20.62;40.74
9415;BME280;4746;35.664;139.738;2023-04-25T11:32:57;100882.00;;;20.58;41.02
9415;BME280;4746;35.664;139.738;2023-04-25T11:35:26;100882.69;;;20.66;40.66
9415;BME280;4746;35.664;139.738;2023-04-25T11:37:53;100893.09;;;20.66;40.66
9415;BME280;4746;35.664;139.738;2023-04-25T11:40:21;100865.56;;;20.56;40.98
9415;BME280;4746;35.664;139.738;2023-04-25T11:42:48;100882.88;;;20.57;41.12
9415;BME280;4746;35.664;139.738;2023-04-25T11:45:16;100878.53;;;20.58;40.61
9415;BME280;4746;35.664;139.738;2023-04-25T11:47:45;100873.34;;;20.58;40.83
9415;BME280;4746;35.664;139.738;2023-04-25T11:50:13;100871.53;;;20.60;40.73
9415;BME280;4746;35.664;139.738;2023-04-25T11:52:46;100867.09;;;20.63;40.99
9415;BME280;4746;35.664;139.738;2023-04-25T11:55:18;100872.13;;;20.72;40.82
9415;BME280;4746;35.664;139.738;2023-04-25T11:57:50;100867.06;;;20.66;40.84
9415;BME280;4746;35.664;139.738;2023-04-25T12:00:20;100870.59;;;20.64;41.21
9415;BME280;4746;35.664;139.738;2023-04-25T12:02:55;100863.63;;;20.64;41.10
9415;BME280;4746;35.664;139.738;2023-04-25T12:05:30;100872.31;;;20.63;40.98
9415;BME280;4746;35.664;139.738;2023-04-25T12:08:11;100865.16;;;20.73;40.94
9415;BME280;4746;35.664;139.738;2023-04-25T12:10:41;100864.34;;;20.71;40.90
9415;BME280;4746;35.664;139.738;2023-04-25T12:13:26;100872.06;;;20.77;40.77
9415;BME280;4746;35.664;139.738;2023-04-25T12:15:58;100868.63;;;20.73;40.62
9415;BME280;4746;35.664;139.738;2023-04-25T12:18:27;100881.66;;;20.72;40.90
9415;BME280;4746;35.664;139.738;2023-04-25T12:20:55;100878.16;;;20.76;40.76
9415;BME280;4746;35.664;139.738;2023-04-25T12:23:29;100876.34;;;20.79;41.05
9415;BME280;4746;35.664;139.738;2023-04-25T12:25:57;100863.38;;;20.76;40.88
9415;BME280;4746;35.664;139.738;2023-04-25T12:28:25;100852.88;;;20.79;40.58
9415;BME280;4746;35.664;139.738;2023-04-25T12:30:59;100850.28;;;20.78;41.04
9415;BME280;4746;35.664;139.738;2023-04-25T12:33:33;100858.22;;;20.73;41.20
9415;BME280;4746;35.664;139.738;2023-04-25T12:36:04;100846.03;;;20.75;41.27
9415;BME280;4746;35.664;139.738;2023-04-25T12:38:43;100839.03;;;20.77;41.20
9415;BME280;4746;35.664;139.738;2023-04-25T12:41:10;100839.97;;;20.75;41.32
9415;BME280;4746;35.664;139.738;2023-04-25T12:43:38;100837.38;;;20.73;41.44
9415;BME280;4746;35.664;139.738;2023-04-25T12:46:05;100838.19;;;20.75;41.48
9415;BME280;4746;35.664;139.738;2023-04-25T12:48:33;100834.72;;;20.76;41.19
9415;BME280;4746;35.664;139.738;2023-04-25T12:51:01;100831.22;;;20.77;41.46
9415;BME280;4746;35.664;139.738;2023-04-25T12:53:28;100835.44;;;20.81;41.31
9415;BME280;4746;35.664;139.738;2023-04-25T12:55:56;100826.69;;;20.85;41.39
9415;BME280;4746;35.664;139.738;2023-04-25T12:58:24;100824.28;;;20.76;41.62
9415;BME280;4746;35.664;139.738;2023-04-25T13:00:51;100827.84;;;20.72;41.91
9415;BME280;4746;35.664;139.738;2023-04-25T13:03:19;100826.06;;;20.73;41.78